Time;durP1;ratioP1;P1;durP2;ratioP2;P2;SDS_P1;SDS_P2;PMS_P1;PMS_P2;Temp;Humidity;BMP_temperature;BMP_pressure;BME280_temperature;BME280_humidity;BME280_pressure;Samples;Min_cycle;Max_cycle;Signal;HPM_P1;HPM_P2
2023/03/21 00:03:03;;;;;;;5.10;3.00;;;;;;;11.77;55.84;100397.66;10408905;28;20044;-70
2023/03/21 00:08:04;;;;;;;6.22;2.92;;;;;;;11.79;56.47;100390.38;10405872;28;20045;-70
2023/03/21 00:13:06;;;;;;;6.47;3.00;;;;;;;11.80;56.46;100389.41;10407729;28;20056;-71
2023/03/21 00:18:10;;;;;;;7.20;3.30;;;;;;;11.75;56.58;100383.59;10407370;28;20045;-72
2023/03/21 00:23:11;;;;;;;3.77;2.67;;;;;;;11.68;56.69;100377.94;10406259;28;20048;-70
2023/03/21 00:28:13;;;;;;;8.52;3.30;;;;;;;11.69;56.83;100370.78;10406397;28;20550;-72
2023/03/21 00:33:14;;;;;;;5.53;3.17;;;;;;;11.65;56.81;100367.53;10407470;28;20056;-68
2023/03/21 00:38:23;;;;;;;6.60;2.60;;;;;;;11.60;56.70;100369.72;10397615;28;20057;-71
2023/03/21 00:43:28;;;;;;;6.07;3.20;;;;;;;11.56;56.90;100359.44;10414585;28;20590;-69
2023/03/21 00:48:30;;;;;;;4.88;2.58;;;;;;;11.46;57.05;100357.53;10414299;28;20072;-73
2023/03/21 00:53:32;;;;;;;6.43;2.72;;;;;;;11.39;56.97;100344.84;10413944;28;20503;-70
2023/03/21 00:58:33;;;;;;;5.13;2.67;;;;;;;11.37;57.25;100350.31;10412970;28;20489;-70
2023/03/21 01:03:41;;;;;;;6.07;2.83;;;;;;;11.23;56.94;100323.94;10411107;28;20049;-69
2023/03/21 01:08:42;;;;;;;4.28;3.03;;;;;;;11.32;57.15;100333.88;10413028;28;20640;-71
2023/03/21 01:13:53;;;;;;;6.53;2.78;;;;;;;11.22;57.56;100323.09;10392762;28;20172;-68
2023/03/21 01:19:10;;;;;;;;;;;;;;;11.21;57.64;100334.72;10412222;28;20156;-71
2023/03/21 01:24:25;;;;;;;3.17;2.28;;;;;;;11.18;57.75;100321.66;10410925;28;19921;-68
2023/03/21 01:29:26;;;;;;;5.72;3.38;;;;;;;11.25;57.51;100330.84;10410550;28;20079;-70
2023/03/21 01:34:28;;;;;;;5.47;2.92;;;;;;;11.25;57.78;100335.34;10392001;28;20262;-68
2023/03/21 01:39:33;;;;;;;5.53;3.33;;;;;;;11.17;57.67;100330.63;10411138;28;20133;-71
2023/03/21 01:45:14;;;;;;;6.95;3.50;;;;;;;11.11;57.97;100323.16;10409006;28;20052;-71
2023/03/21 01:50:15;;;;;;;7.70;3.42;;;;;;;11.00;58.23;100320.50;10376593;28;20053;-69
2023/03/21 01:55:17;;;;;;;5.30;3.30;;;;;;;10.99;58.07;100321.47;10409820;28;20056;-70
2023/03/21 02:00:23;;;;;;;3.95;3.40;;;;;;;10.92;58.16;100319.31;10419901;28;20048;-70
2023/03/21 02:05:32;;;;;;;6.75;4.05;;;;;;;10.88;58.20;100309.84;10422926;28;20089;-71
2023/03/21 02:10:35;;;;;;;4.57;3.58;;;;;;;10.98;58.29;100309.13;10394771;28;20045;-71
2023/03/21 02:15:40;;;;;;;4.65;3.30;;;;;;;10.91;58.56;100300.78;10413952;28;20138;-71
2023/03/21 02:21:20;;;;;;;8.15;3.90;;;;;;;10.93;58.55;100302.38;10396722;28;20072;-70
2023/03/21 02:26:41;;;;;;;5.60;3.70;;;;;;;10.88;58.73;100298.38;10412640;28;20053;-69
2023/03/21 02:31:55;;;;;;;5.57;3.60;;;;;;;10.76;58.71;100289.56;10397730;28;20048;-70
2023/03/21 02:37:20;;;;;;;6.78;4.07;;;;;;;10.73;58.87;100296.00;10410519;28;20080;-71
2023/03/21 02:42:45;;;;;;;5.70;3.97;;;;;;;10.68;58.81;100281.34;10412460;28;20057;-70
2023/03/21 02:48:07;;;;;;;6.70;4.30;;;;;;;10.61;59.45;100271.22;10413934;28;20072;-72
2023/03/21 02:53:17;;;;;;;5.67;3.70;;;;;;;10.63;59.30;100281.72;10422550;28;20056;-72
2023/03/21 02:58:22;;;;;;;6.45;3.83;;;;;;;10.55;59.42;100282.34;10434851;28;20276;-72
2023/03/21 03:03:23;;;;;;;4.75;3.97;;;;;;;10.51;59.57;100274.69;10412754;28;20056;-71
2023/03/21 03:08:57;;;;;;;6.07;3.67;;;;;;;10.48;59.84;100280.28;10457416;28;20064;-69
2023/03/21 03:14:11;;;;;;;4.90;3.55;;;;;;;10.50;59.92;100279.19;10426805;28;20415;-68
2023/03/21 03:19:42;;;;;;;6.75;3.83;;;;;;;10.47;60.04;100279.44;10385726;28;20167;-72
2023/03/21 03:25:03;;;;;;;5.00;3.50;;;;;;;10.40;60.06;100270.25;10406229;28;20040;-68
2023/03/21 03:30:26;;;;;;;5.30;4.22;;;;;;;10.30;60.15;100269.25;10397904;28;20049;-73
2023/03/21 03:35:43;;;;;;;4.78;3.70;;;;;;;10.15;60.69;100258.84;10410351;28;20053;-71
2023/03/21 03:40:57;;;;;;;5.60;3.67;;;;;;;10.01;60.71;100235.16;10409731;28;20132;-71
2023/03/21 03:46:21;;;;;;;6.35;4.75;;;;;;;10.14;60.94;100262.47;10411684;28;20144;-72
2023/03/21 03:51:42;;;;;;;5.68;4.13;;;;;;;10.12;61.04;100252.91;10437002;28;20053;-71
2023/03/21 03:56:45;;;;;;;6.28;4.13;;;;;;;10.08;60.88;100253.16;10437243;28;20041;-72
2023/03/21 04:01:47;;;;;;;5.30;4.15;;;;;;;10.14;60.98;100257.16;10401405;28;20056;-68
2023/03/21 04:06:50;;;;;;;7.70;4.20;;;;;;;10.08;61.03;100257.66;10411269;28;20060;-69
2023/03/21 04:11:52;;;;;;;4.70;4.20;;;;;;;10.01;61.28;100256.44;10399597;28;20148;-70
2023/03/21 04:16:53;;;;;;;8.20;4.57;;;;;;;9.99;61.19;100242.41;10398533;28;20052;-69
2023/03/21 04:21:54;;;;;;;5.28;4.10;;;;;;;10.10;61.14;100242.41;10412407;28;20048;-71
2023/03/21 04:26:56;;;;;;;6.28;4.85;;;;;;;10.16;60.90;100246.41;10410993;28;20138;-71
2023/03/21 04:31:58;;;;;;;7.38;4.15;;;;;;;10.07;61.02;100229.34;10412130;28;20463;-70
2023/03/21 04:36:59;;;;;;;7.35;4.30;;;;;;;10.08;61.20;100231.88;10413466;28;20412;-70
2023/03/21 04:42:01;;;;;;;5.38;4.07;;;;;;;10.07;61.06;100237.31;10416711;28;20049;-71
2023/03/21 04:47:02;;;;;;;6.63;4.15;;;;;;;10.07;60.90;100238.19;10415553;28;20132;-69
2023/03/21 04:52:04;;;;;;;5.65;4.40;;;;;;;10.09;61.38;100230.94;10416161;28;20067;-70
2023/03/21 04:57:06;;;;;;;7.35;4.30;;;;;;;10.16;61.18;100233.94;10417451;28;20045;-69
2023/03/21 05:02:08;;;;;;;6.70;4.38;;;;;;;10.22;60.58;100249.44;10411298;28;20096;-70
2023/03/21 05:07:09;;;;;;;7.18;5.13;;;;;;;10.26;60.51;100250.88;10412848;28;20119;-69
2023/03/21 05:12:11;;;;;;;7.03;4.78;;;;;;;10.23;60.30;100251.09;10413462;28;20095;-70
2023/03/21 05:17:14;;;;;;;7.30;4.90;;;;;;;10.11;60.70;100252.09;10413251;28;20041;-73
2023/03/21 05:22:18;;;;;;;6.25;4.50;;;;;;;10.13;61.10;100243.97;10411872;28;20311;-69
2023/03/21 05:27:35;;;;;;;7.90;5.13;;;;;;;10.12;60.96;100240.47;10412369;28;20049;-71
2023/03/21 05:32:37;;;;;;;7.70;4.38;;;;;;;10.10;61.12;100226.44;10411192;28;20045;-70
2023/03/21 05:37:39;;;;;;;7.22;5.30;;;;;;;10.10;61.18;100234.41;10411687;28;20057;-71
2023/03/21 05:42:40;;;;;;;7.15;4.57;;;;;;;10.05;61.72;100234.78;10410783;28;20052;-70
2023/03/21 05:47:42;;;;;;;5.45;4.78;;;;;;;10.14;61.45;100235.03;10403354;28;20513;-71
2023/03/21 05:52:43;;;;;;;5.22;4.53;;;;;;;10.16;61.64;100228.63;10378519;28;20052;-70
2023/03/21 05:57:45;;;;;;;6.90;4.70;;;;;;;10.26;61.57;100237.56;10403914;28;20060;-72
2023/03/21 06:02:46;;;;;;;5.70;4.47;;;;;;;10.24;61.51;100231.53;10410349;28;20048;-72
2023/03/21 06:07:48;;;;;;;10.02;5.95;;;;;;;10.32;61.49;100224.75;10412147;28;20734;-73
2023/03/21 06:12:50;;;;;;;7.40;5.00;;;;;;;10.47;61.18;100236.84;10409336;28;20049;-72
2023/03/21 06:17:52;;;;;;;6.70;4.75;;;;;;;10.40;61.61;100231.19;10410091;28;20068;-71
2023/03/21 06:22:53;;;;;;;6.28;5.53;;;;;;;10.34;61.58;100233.47;10389999;28;20076;-74
2023/03/21 06:27:54;;;;;;;6.93;5.13;;;;;;;10.25;61.83;100235.03;10395536;28;20053;-77
2023/03/21 06:32:56;;;;;;;7.03;5.32;;;;;;;10.24;62.09;100244.81;10427226;28;20061;-77
2023/03/21 06:37:58;;;;;;;7.10;6.13;;;;;;;10.26;62.47;100242.03;10462305;28;20041;-78
2023/03/21 06:43:00;;;;;;;6.95;4.75;;;;;;;10.49;62.07;100244.72;10426262;28;20049;-73
2023/03/21 06:48:01;;;;;;;7.97;5.78;;;;;;;10.71;61.66;100251.81;10414902;28;20057;-74
2023/03/21 06:53:05;;;;;;;6.53;5.75;;;;;;;10.78;61.15;100250.34;10408417;28;20053;-71
2023/03/21 06:58:15;;;;;;;12.15;6.10;;;;;;;10.98;60.60;100242.56;10439928;27;20123;-66
2023/03/21 07:03:18;;;;;;;8.65;5.05;;;;;;;11.08;60.47;100235.47;10420453;28;20259;-68
2023/03/21 07:08:21;;;;;;;7.53;5.40;;;;;;;11.29;59.75;100249.69;10430828;28;20143;-68
2023/03/21 07:13:22;;;;;;;9.13;5.75;;;;;;;11.45;58.79;100238.59;10389562;28;20045;-71
2023/03/21 07:18:24;;;;;;;6.18;4.70;;;;;;;11.80;58.28;100248.06;10425853;28;20864;-71
2023/03/21 07:23:27;;;;;;;8.73;5.10;;;;;;;12.04;56.64;100249.63;10415349;28;20321;-67
2023/03/21 07:28:30;;;;;;;4.90;4.38;;;;;;;12.15;56.57;100251.34;10414990;28;20056;-67
2023/03/21 07:33:32;;;;;;;6.82;5.57;;;;;;;12.22;56.46;100252.53;10423923;28;20056;-70
2023/03/21 07:38:34;;;;;;;9.10;4.70;;;;;;;12.24;55.85;100250.56;10416260;28;20130;-58
2023/03/21 07:43:35;;;;;;;7.32;5.63;;;;;;;12.23;55.40;100246.19;10414539;28;20061;-72
2023/03/21 07:48:39;;;;;;;7.40;5.15;;;;;;;12.37;55.75;100259.16;10416822;28;20040;-68
2023/03/21 07:53:42;;;;;;;6.63;4.72;;;;;;;12.45;55.46;100269.16;10417235;28;20158;-68
2023/03/21 07:58:44;;;;;;;7.05;5.43;;;;;;;12.28;55.99;100257.31;10422557;27;20183;-68
2023/03/21 08:03:46;;;;;;;8.05;4.60;;;;;;;12.44;55.58;100253.28;10414537;28;20044;-71
2023/03/21 08:08:48;;;;;;;13.48;5.82;;;;;;;12.46;55.96;100254.84;10396160;28;20052;-72
2023/03/21 08:13:50;;;;;;;12.23;5.75;;;;;;;12.58;56.04;100250.25;10388368;28;20051;-70
2023/03/21 08:18:51;;;;;;;8.77;5.40;;;;;;;12.77;56.29;100251.25;10388629;28;20480;-68
2023/03/21 08:23:53;;;;;;;10.13;5.72;;;;;;;12.93;56.49;100242.72;10386682;28;20049;-71
2023/03/21 08:28:54;;;;;;;9.82;6.85;;;;;;;13.15;55.82;100242.47;10389726;28;20060;-70
2023/03/21 08:33:56;;;;;;;9.40;5.90;;;;;;;13.47;55.04;100243.19;10387979;28;20058;-70
2023/03/21 08:39:04;;;;;;;8.27;5.97;;;;;;;13.67;54.32;100244.81;10389467;28;20068;-69
2023/03/21 08:44:05;;;;;;;8.18;5.38;;;;;;;13.97;52.51;100245.59;10393507;28;20049;-70
2023/03/21 08:49:07;;;;;;;8.85;5.35;;;;;;;14.01;52.82;100243.47;10386868;28;20053;-72
2023/03/21 08:54:17;;;;;;;6.85;4.82;;;;;;;13.91;51.74;100236.31;10384527;28;20219;-71
2023/03/21 08:59:19;;;;;;;5.65;4.82;;;;;;;13.71;52.94;100240.03;10377628;28;20051;-69
2023/03/21 09:04:20;;;;;;;7.75;4.63;;;;;;;13.72;52.00;100237.22;10385572;28;21861;-71
2023/03/21 09:09:22;;;;;;;7.03;4.63;;;;;;;13.69;51.77;100240.19;10384123;28;20045;-70
2023/03/21 09:14:24;;;;;;;11.95;6.28;;;;;;;13.79;52.09;100238.31;10388730;28;20075;-70
2023/03/21 09:19:30;;;;;;;7.95;5.35;;;;;;;13.84;51.90;100242.38;10382824;28;20053;-70
2023/03/21 09:24:32;;;;;;;11.65;6.30;;;;;;;13.84;51.83;100237.03;10377412;28;20627;-70
2023/03/21 09:29:33;;;;;;;7.60;5.57;;;;;;;13.77;51.68;100242.97;10375421;28;20165;-70
2023/03/21 09:34:39;;;;;;;6.85;5.43;;;;;;;13.73;51.72;100246.91;10388743;28;20059;-69
2023/03/21 09:39:43;;;;;;;7.22;5.28;;;;;;;13.84;51.85;100248.59;10394558;28;20065;-69
2023/03/21 09:45:08;;;;;;;10.15;5.57;;;;;;;13.83;52.41;100243.38;10405420;28;20045;-70
2023/03/21 09:50:16;;;;;;;8.23;6.18;;;;;;;13.73;51.37;100249.59;10388091;28;20124;-71
2023/03/21 09:55:30;;;;;;;8.50;5.20;;;;;;;13.61;52.02;100242.72;10383430;28;20056;-71
2023/03/21 10:00:38;;;;;;;8.52;5.00;;;;;;;13.64;52.26;100234.41;10331783;28;20089;-70
2023/03/21 10:05:43;;;;;;;8.43;5.97;;;;;;;13.81;52.06;100240.88;10334127;28;20054;-69
2023/03/21 10:10:51;;;;;;;8.48;5.90;;;;;;;13.99;51.89;100238.28;10374442;28;20060;-71
2023/03/21 10:15:57;;;;;;;10.15;5.95;;;;;;;14.04;51.93;100235.16;10396119;28;20195;-70
2023/03/21 10:21:00;;;;;;;8.57;5.75;;;;;;;14.13;51.77;100229.75;10344573;28;20049;-70
2023/03/21 10:26:05;;;;;;;10.15;5.43;;;;;;;14.30;51.54;100229.97;10333788;28;20071;-70
2023/03/21 10:31:09;;;;;;;10.38;5.88;;;;;;;14.45;51.37;100228.47;10339246;28;20049;-71
2023/03/21 10:36:26;;;;;;;9.00;5.68;;;;;;;14.34;50.87;100220.66;10336511;28;20193;-71
2023/03/21 10:41:28;;;;;;;9.57;5.25;;;;;;;14.26;51.15;100225.88;10384185;28;20083;-74
2023/03/21 10:46:30;;;;;;;10.30;5.00;;;;;;;14.11;52.01;100221.03;10351965;28;20182;-75
2023/03/21 10:51:38;;;;;;;11.05;5.50;;;;;;;14.18;51.77;100226.63;10367700;28;20276;-75
2023/03/21 10:56:54;;;;;;;9.52;5.78;;;;;;;14.17;52.22;100218.75;10355071;28;20082;-74
2023/03/21 11:01:56;;;;;;;7.85;5.65;;;;;;;14.13;53.57;100223.56;10374728;28;20140;-75
2023/03/21 11:07:06;;;;;;;8.93;4.88;;;;;;;14.18;54.58;100233.81;10413684;28;20056;-74
2023/03/21 11:12:14;;;;;;;7.60;4.80;;;;;;;14.11;57.52;100223.72;10389834;28;20680;-73
2023/03/21 11:17:16;;;;;;;6.93;4.72;;;;;;;14.04;58.25;100222.59;10384061;28;20057;-74
2023/03/21 11:22:21;;;;;;;6.30;4.95;;;;;;;13.96;61.10;100211.78;10392033;28;20155;-74
2023/03/21 11:27:28;;;;;;;8.45;5.40;;;;;;;14.00;62.85;100218.53;10386611;28;20052;-71
2023/03/21 11:32:36;;;;;;;8.25;6.25;;;;;;;14.02;62.42;100216.56;10382946;28;20059;-69
2023/03/21 11:37:45;;;;;;;8.30;6.00;;;;;;;13.88;63.89;100217.88;10379910;28;20140;-67
2023/03/21 11:42:58;;;;;;;12.07;7.28;;;;;;;13.91;65.13;100214.06;10352523;28;20049;-67
2023/03/21 11:48:04;;;;;;;7.93;6.85;;;;;;;13.92;66.00;100210.41;10346898;28;20049;-67
2023/03/21 11:53:39;;;;;;;11.68;7.30;;;;;;;13.99;65.34;100211.50;10383543;28;20078;-69
2023/03/21 11:58:53;;;;;;;10.25;7.55;;;;;;;13.79;65.99;100190.16;10359101;28;20140;-69
2023/03/21 12:04:26;;;;;;;8.57;6.80;;;;;;;13.95;66.39;100200.25;10382394;28;20140;-72
2023/03/21 12:09:39;;;;;;;9.60;6.57;;;;;;;13.82;67.79;100201.56;10382369;28;20056;-68
2023/03/21 12:15:15;;;;;;;12.97;6.13;;;;;;;13.81;67.94;100191.84;10390094;28;20531;-69
2023/03/21 12:20:53;;;;;;;8.43;6.43;;;;;;;13.76;68.58;100195.78;10398946;28;20052;-68
2023/03/21 12:26:19;;;;;;;9.50;6.32;;;;;;;13.94;69.01;100184.34;10391172;28;20137;-69
2023/03/21 12:31:24;;;;;;;7.82;5.75;;;;;;;14.11;68.70;100180.88;10395917;28;20053;-70
2023/03/21 12:36:57;;;;;;;11.82;6.85;;;;;;;14.33;68.63;100170.75;10375394;28;20561;-69
2023/03/21 12:42:20;;;;;;;13.93;6.70;;;;;;;14.14;66.40;100161.84;10354718;28;20046;-69
2023/03/21 12:47:26;;;;;;;10.38;5.82;;;;;;;13.99;66.69;100151.78;10377945;28;20203;-67
2023/03/21 12:52:35;;;;;;;6.35;5.40;;;;;;;13.77;67.22;100138.63;10363431;28;20065;-68
2023/03/21 12:57:44;;;;;;;8.75;6.38;;;;;;;13.72;68.23;100134.72;10389451;28;20518;-68
2023/03/21 13:03:02;;;;;;;12.98;7.30;;;;;;;13.65;68.75;100137.13;10375490;28;20055;-67
2023/03/21 13:08:10;;;;;;;8.10;5.43;;;;;;;13.65;69.16;100133.63;10406840;28;20592;-68
2023/03/21 13:13:53;;;;;;;7.57;3.90;;;;;;;13.42;65.73;100128.59;10390884;28;20754;-70
2023/03/21 13:19:09;;;;;;;5.13;3.90;;;;;;;13.23;65.02;100129.47;10369410;28;20052;-70
2023/03/21 13:24:26;;;;;;;7.07;3.45;;;;;;;13.19;66.57;100128.06;10357370;28;20076;-67
2023/03/21 13:29:43;;;;;;;3.97;3.17;;;;;;;13.20;67.83;100124.44;10382356;28;20086;-70
2023/03/21 13:34:53;;;;;;;4.68;3.25;;;;;;;13.22;67.26;100112.59;10383158;28;20044;-70
2023/03/21 13:40:11;;;;;;;4.75;3.17;;;;;;;13.26;67.42;100107.81;10394150;28;20045;-70
2023/03/21 13:45:26;;;;;;;4.20;3.80;;;;;;;13.15;66.50;100111.50;10387081;28;20049;-70
2023/03/21 13:50:53;;;;;;;5.03;3.00;;;;;;;13.16;67.05;100112.34;10383764;28;20079;-71
2023/03/21 13:56:05;;;;;;;4.18;3.47;;;;;;;13.07;68.65;100104.19;10355651;28;20161;-68
2023/03/21 14:01:31;;;;;;;6.20;3.67;;;;;;;13.04;68.67;100100.97;10382107;28;20055;-70
2023/03/21 14:07:16;;;;;;;7.75;4.13;;;;;;;13.02;71.59;100084.25;10373934;28;20414;-70
2023/03/21 14:12:46;;;;;;;6.40;4.20;;;;;;;13.07;69.82;100096.16;10362005;28;20049;-69
2023/03/21 14:18:00;;;;;;;6.80;3.58;;;;;;;13.06;70.15;100077.59;10358420;28;20079;-71
2023/03/21 14:23:16;;;;;;;6.13;4.15;;;;;;;13.08;69.86;100072.97;10388250;28;20053;-73
2023/03/21 14:28:28;;;;;;;6.97;3.78;;;;;;;13.02;72.66;100073.56;10380925;28;20047;-73
2023/03/21 14:33:36;;;;;;;7.13;3.50;;;;;;;13.01;72.66;100064.66;10385873;28;20056;-70
2023/03/21 14:38:39;;;;;;;7.45;3.95;;;;;;;12.97;72.34;100049.94;10372428;28;20060;-70
2023/03/21 14:43:41;;;;;;;6.03;3.13;;;;;;;12.95;72.15;100054.56;10375306;28;20135;-72
2023/03/21 14:48:43;;;;;;;5.78;4.32;;;;;;;12.84;71.04;100046.72;10367557;28;20048;-68
2023/03/21 14:53:44;;;;;;;5.85;4.70;;;;;;;12.75;71.65;100023.56;10389560;28;20668;-70
2023/03/21 14:58:46;;;;;;;6.63;4.95;;;;;;;12.66;74.48;100031.41;10381034;28;20132;-69
2023/03/21 15:03:50;;;;;;;7.78;5.25;;;;;;;12.72;74.66;100017.50;10404262;28;20041;-69
2023/03/21 15:08:58;;;;;;;8.02;4.88;;;;;;;12.79;74.27;100027.59;10389449;28;20295;-69
2023/03/21 15:14:03;;;;;;;7.63;4.25;;;;;;;12.84;74.95;100031.53;10379700;28;20057;-69
2023/03/21 15:19:06;;;;;;;6.45;4.50;;;;;;;12.88;73.67;100027.59;10388730;28;20044;-68
2023/03/21 15:24:16;;;;;;;8.77;4.78;;;;;;;12.88;74.38;100034.75;10386700;28;20049;-71
2023/03/21 15:29:18;;;;;;;7.38;4.40;;;;;;;12.83;73.58;100018.31;10405244;28;20239;-69
2023/03/21 15:34:20;;;;;;;7.22;4.55;;;;;;;12.90;73.64;100024.78;10378713;28;20053;-67
2023/03/21 15:39:23;;;;;;;5.25;3.80;;;;;;;12.91;73.63;100013.13;10395308;28;20073;-67
2023/03/21 15:44:26;;;;;;;7.97;4.80;;;;;;;12.92;73.28;100001.41;10400862;28;20128;-67
2023/03/21 15:49:34;;;;;;;5.70;4.45;;;;;;;12.92;73.55;99998.75;10370867;28;20429;-67
2023/03/21 15:54:49;;;;;;;12.13;4.78;;;;;;;12.85;74.24;99990.50;10389748;28;20071;-67
2023/03/21 16:00:10;;;;;;;8.93;5.05;;;;;;;12.81;75.57;99996.25;10395308;28;20071;-69
2023/03/21 16:05:23;;;;;;;8.07;5.22;;;;;;;12.86;76.37;100010.03;10394543;28;20041;-68
2023/03/21 16:10:36;;;;;;;12.52;5.50;;;;;;;12.88;75.54;100006.22;10382971;28;20139;-68
2023/03/21 16:15:38;;;;;;;8.15;5.10;;;;;;;12.84;74.76;100002.16;10390143;28;20190;-68
2023/03/21 16:20:45;;;;;;;8.45;4.78;;;;;;;12.78;76.02;99994.72;10389489;28;20040;-67
2023/03/21 16:25:46;;;;;;;7.22;5.97;;;;;;;12.76;76.12;99985.16;10390743;28;20060;-69
2023/03/21 16:30:48;;;;;;;7.85;5.72;;;;;;;12.72;76.48;99981.94;10387871;28;20258;-68
2023/03/21 16:35:50;;;;;;;6.70;5.70;;;;;;;12.68;77.06;99981.38;10387069;28;20052;-67
2023/03/21 16:40:52;;;;;;;10.23;5.75;;;;;;;12.68;77.70;99981.38;10380800;28;20054;-67
2023/03/21 16:45:54;;;;;;;9.23;5.88;;;;;;;12.64;78.29;99968.44;10374101;28;20158;-68
2023/03/21 16:50:55;;;;;;;7.72;5.53;;;;;;;12.64;79.07;99973.78;10385276;28;20048;-68
2023/03/21 16:56:01;;;;;;;8.63;6.05;;;;;;;12.61;79.28;99987.44;10387335;28;20139;-65
2023/03/21 17:01:02;;;;;;;9.75;5.63;;;;;;;12.57;79.61;99980.72;10381956;28;20084;-68
2023/03/21 17:06:04;;;;;;;9.57;6.68;;;;;;;12.55;79.91;99986.19;10366025;28;20070;-68
2023/03/21 17:11:11;;;;;;;9.88;6.20;;;;;;;12.52;80.44;99987.31;10382915;28;20215;-67
2023/03/21 17:16:14;;;;;;;8.43;6.20;;;;;;;12.48;81.10;99966.38;10378979;28;20158;-68
2023/03/21 17:21:19;;;;;;;8.63;6.78;;;;;;;12.47;81.06;99964.69;10371276;28;20412;-68
2023/03/21 17:26:26;;;;;;;11.80;10.60;;;;;;;12.43;80.75;99952.63;10395856;28;20048;-66
2023/03/21 17:31:33;;;;;;;84.95;76.28;;;;;;;12.32;82.40;99949.09;10394776;28;20055;-67
2023/03/21 17:36:39;;;;;;;69.93;63.30;;;;;;;12.28;82.79;99937.06;10375885;28;20049;-68
2023/03/21 17:41:40;;;;;;;21.20;19.25;;;;;;;12.29;82.71;99946.72;10395936;28;20064;-66
2023/03/21 17:46:42;;;;;;;18.98;17.35;;;;;;;12.16;82.92;99932.84;10396317;28;20145;-69
2023/03/21 17:51:45;;;;;;;9.55;8.63;;;;;;;12.23;83.75;99955.31;10399836;28;21416;-67
2023/03/21 17:56:47;;;;;;;32.17;29.48;;;;;;;12.19;83.78;99964.59;10392155;28;20152;-68
2023/03/21 18:01:48;;;;;;;67.70;55.92;;;;;;;12.00;84.47;99918.25;10393667;28;20066;-67
2023/03/21 18:06:50;;;;;;;67.78;60.63;;;;;;;12.14;84.50;99956.16;10389879;28;20049;-66
2023/03/21 18:11:52;;;;;;;27.88;23.25;;;;;;;12.02;85.06;99958.97;10388851;28;20052;-67
2023/03/21 18:16:56;;;;;;;56.63;50.92;;;;;;;12.01;85.63;99964.47;10382737;28;20425;-68
2023/03/21 18:21:57;;;;;;;60.95;44.63;;;;;;;11.98;85.49;99968.25;10390034;28;20056;-68
2023/03/21 18:26:59;;;;;;;15.82;12.68;;;;;;;11.97;85.65;99974.53;10379256;28;20150;-67
2023/03/21 18:32:02;;;;;;;11.45;10.25;;;;;;;12.03;85.40;99965.16;10398358;28;20455;-68
2023/03/21 18:37:08;;;;;;;13.63;12.20;;;;;;;12.06;85.16;99974.72;10389220;28;20049;-67
2023/03/21 18:42:13;;;;;;;23.10;20.67;;;;;;;11.96;85.44;99969.34;10386289;28;20211;-68
2023/03/21 18:47:21;;;;;;;13.40;10.25;;;;;;;11.96;85.50;99970.19;10391020;28;20082;-67
2023/03/21 18:52:26;;;;;;;11.90;10.50;;;;;;;12.03;84.97;99979.31;10380266;28;20057;-68
2023/03/21 18:57:27;;;;;;;12.63;10.07;;;;;;;12.10;85.14;99986.75;10381967;28;20068;-71
2023/03/21 19:02:40;;;;;;;15.50;12.88;;;;;;;12.09;85.31;99985.09;10381094;28;20061;-69
2023/03/21 19:07:49;;;;;;;12.65;11.35;;;;;;;12.14;84.64;99989.00;10387559;28;20059;-68
2023/03/21 19:12:53;;;;;;;13.00;11.02;;;;;;;12.08;85.25;99988.75;10384525;28;20754;-70
2023/03/21 19:17:55;;;;;;;13.00;11.52;;;;;;;12.08;85.20;99973.56;10381821;28;20055;-71
2023/03/21 19:23:16;;;;;;;13.65;11.73;;;;;;;12.08;85.59;99976.22;10388627;28;20065;-68
2023/03/21 19:28:19;;;;;;;13.95;11.55;;;;;;;12.06;85.74;99980.03;10384217;28;20063;-69
2023/03/21 19:33:21;;;;;;;15.45;11.60;;;;;;;11.98;85.61;99968.25;10387132;28;20958;-70
2023/03/21 19:38:23;;;;;;;13.90;11.32;;;;;;;11.96;86.12;99972.03;10386277;28;20807;-70
2023/03/21 19:43:24;;;;;;;15.93;12.10;;;;;;;11.93;86.43;99970.47;10379492;28;20079;-71
2023/03/21 19:48:33;;;;;;;12.27;11.00;;;;;;;11.89;86.81;99969.06;10368545;28;20116;-69
2023/03/21 19:53:37;;;;;;;16.05;13.50;;;;;;;11.88;87.04;99967.34;10385660;28;20102;-69
2023/03/21 19:58:42;;;;;;;16.45;13.75;;;;;;;11.88;86.99;99970.03;10386910;28;20302;-69
2023/03/21 20:03:44;;;;;;;15.55;12.40;;;;;;;11.90;86.70;99981.38;10394891;28;20047;-70
2023/03/21 20:08:46;;;;;;;14.13;12.10;;;;;;;11.87;87.08;99975.50;10389131;28;20063;-68
2023/03/21 20:14:08;;;;;;;13.10;11.75;;;;;;;11.87;87.49;99976.31;10384739;28;20091;-71
2023/03/21 20:19:12;;;;;;;13.35;11.50;;;;;;;11.87;87.42;99978.16;10378609;28;20569;-71
2023/03/21 20:24:15;;;;;;;16.27;11.77;;;;;;;11.86;87.62;99988.00;10372825;28;20127;-71
2023/03/21 20:29:16;;;;;;;14.73;12.30;;;;;;;11.93;87.55;99990.97;10390492;28;21887;-71
2023/03/21 20:34:39;;;;;;;17.35;13.60;;;;;;;11.95;87.40;99989.84;10386548;28;20057;-69
2023/03/21 20:39:41;;;;;;;20.02;14.63;;;;;;;11.93;87.05;99970.47;10385964;28;20119;-70
2023/03/21 20:44:42;;;;;;;18.40;15.73;;;;;;;11.94;87.23;99990.84;10386029;28;20053;-70
2023/03/21 20:50:01;;;;;;;25.48;19.55;;;;;;;11.90;86.95;99968.03;10381634;28;20052;-70
2023/03/21 20:55:07;;;;;;;22.42;19.35;;;;;;;11.87;87.03;99960.31;10393202;28;20418;-69
2023/03/21 21:00:16;;;;;;;20.10;15.80;;;;;;;11.78;87.94;99964.66;10392152;28;21109;-69
2023/03/21 21:05:18;;;;;;;16.45;14.55;;;;;;;11.69;88.54;99968.16;10392659;28;20056;-70
2023/03/21 21:10:37;;;;;;;15.65;13.50;;;;;;;11.63;87.96;99953.59;10384613;28;20068;-71
2023/03/21 21:15:59;;;;;;;16.23;14.52;;;;;;;11.59;87.65;99959.28;10385409;28;20069;-70
2023/03/21 21:21:04;;;;;;;16.90;15.15;;;;;;;11.48;87.36;99960.25;10381174;28;20140;-71
2023/03/21 21:26:07;;;;;;;17.80;16.00;;;;;;;11.46;87.20;99964.91;10389131;28;20048;-70
2023/03/21 21:31:13;;;;;;;18.13;16.30;;;;;;;11.43;87.68;99975.84;10392221;28;20060;-72
2023/03/21 21:36:15;;;;;;;18.05;15.98;;;;;;;11.36;87.25;99972.00;10392682;28;20675;-69
2023/03/21 21:41:19;;;;;;;17.60;15.80;;;;;;;11.35;87.19;99965.00;10390958;28;20057;-70
2023/03/21 21:46:21;;;;;;;20.00;16.90;;;;;;;11.26;87.37;99959.50;10391885;28;20069;-69
2023/03/21 21:51:25;;;;;;;18.90;16.08;;;;;;;11.30;87.13;99963.59;10388906;28;20725;-68
2023/03/21 21:56:31;;;;;;;17.55;15.65;;;;;;;11.31;87.34;99951.09;10392134;28;20095;-68
2023/03/21 22:01:33;;;;;;;21.13;16.95;;;;;;;11.21;87.87;99942.22;10388741;28;20113;-69
2023/03/21 22:06:36;;;;;;;19.13;17.17;;;;;;;11.14;88.08;99952.59;10390688;28;21030;-67
2023/03/21 22:11:37;;;;;;;20.27;17.63;;;;;;;11.15;88.29;99946.28;10391151;28;20130;-69
2023/03/21 22:16:39;;;;;;;18.30;16.40;;;;;;;11.16;88.04;99941.81;10384421;28;20061;-68
2023/03/21 22:21:40;;;;;;;18.38;16.48;;;;;;;11.13;88.12;99934.91;10380435;28;20081;-69
2023/03/21 22:26:43;;;;;;;19.00;16.48;;;;;;;11.11;88.21;99935.06;10383805;28;20554;-68
2023/03/21 22:31:46;;;;;;;17.38;15.60;;;;;;;11.07;88.64;99940.78;10387408;28;20056;-68
2023/03/21 22:36:49;;;;;;;20.95;16.35;;;;;;;11.05;88.37;99926.75;10382697;28;20048;-68
2023/03/21 22:41:53;;;;;;;17.65;15.85;;;;;;;11.02;88.40;99932.34;10382962;28;20126;-68
2023/03/21 22:46:54;;;;;;;17.00;15.20;;;;;;;11.00;88.46;99931.66;10381842;28;20063;-68
2023/03/21 22:51:56;;;;;;;17.90;15.65;;;;;;;10.92;88.44;99933.16;10384593;28;20079;-68
2023/03/21 22:56:59;;;;;;;18.15;15.32;;;;;;;10.87;88.81;99935.38;10391106;28;20729;-68
2023/03/21 23:02:00;;;;;;;18.08;15.70;;;;;;;10.88;88.57;99931.72;10388487;28;20059;-69
2023/03/21 23:07:02;;;;;;;17.60;15.60;;;;;;;10.81;88.72;99930.59;10388761;28;20485;-68
2023/03/21 23:12:04;;;;;;;19.67;17.30;;;;;;;10.75;88.44;99939.13;10390280;28;20556;-67
2023/03/21 23:17:06;;;;;;;19.27;16.17;;;;;;;10.67;88.63;99930.94;10390363;28;20156;-67
2023/03/21 23:22:07;;;;;;;20.77;18.58;;;;;;;10.69;88.77;99926.31;10391806;28;20053;-69
2023/03/21 23:27:09;;;;;;;21.30;19.00;;;;;;;10.68;89.86;99924.63;10393220;28;20093;-69